Terminal Aerodrome Forecast
Issued by NWS Springfield, MO

Home | Current Version | Previous Version | Text Only | Print | Product List | Glossary On
Versions: 1 2 3 4 5 6 7 8 9 10 11 12 13 14 15 16 17 18 19 20 21 22 23
000
FTUS43 KSGF 290300 AAA
TAFSGF
TAF AMD
KSGF 290345Z 2904/2924 24006KT P6SM VCSH BKN060
     FM290700 25005KT P6SM SKC
     FM291500 30007KT P6SM SKC=

USA.gov is the U.S. government's official web portal to all federal, state and local government web resources and services.